LATI

Details ICAO LATI (TIA)
Name Tirana Rinas
Region Albania
Timezone Europe/Tirane (UTC+2.0)
Plans Departing 243
Arriving 225
Stats Elevation 126 ft / 38 m (AMSL)
Location 41.414732° 19.720569°
Runways 1
Magnetic Variation 4.277° E
Sunrise 2018-05-23 03:16:59 UTC / 2018-05-23 05:16:59 Local
Sunset 2018-05-23 18:01:36 UTC / 2018-05-23 20:01:36 Local
Advertisement - Login to hide

Runways

ID Width Length Bearing (true) Bearing (mag) Surface Threshold Offset Overrun Length
18 148 ft / 45 m 8,984 ft / 2,738 m 174.31° 170.03° Asphalt 500 ft / 152 m 0 ft / 0 m
36 148 ft / 45 m 8,984 ft / 2,738 m 354.31° 350.03° Asphalt 500 ft / 152 m 0 ft / 0 m

Map

Weather


0- 5 10 15 20 25 30 35+ Temperature / ° C

Clouds and Precipitation
Forecast for 2018-05-23 06:00 UTC. Updated 21 minutes ago

Ground ~20,000 ft ~40,000 ft Winds

METAR

LATI 230320Z VRB01KT CAVOK 18/17 Q1014 NOSIG

TAF

TAF LATI 222300Z 2300/2324 VRB03KT 9999 SCT140 TX27/2312Z TN17/2304Z TEMPO 2310/2318 30010KT -TSRA SCT025CB BKN050 TEMPO 2318/2324 -RA SCT030 BKN070

Frequencies

Tower 123.50 MHz TWR
Approach 133.15 MHz APP
Warning: Do not use this data for real-world aviation or navigation. No guarantee of current accuracy is given.